Time;durP1;ratioP1;P1;durP2;ratioP2;P2;SDS_P1;SDS_P2;PMS_P1;PMS_P2;Temp;Humidity;BMP_temperature;BMP_pressure;BME280_temperature;BME280_humidity;BME280_pressure;Samples;Min_cycle;Max_cycle;Signal;HPM_P1;HPM_P2
2021/09/10 00:00:24;;;;;;;;;;;;;;;21.64;35.80;100426.72;4435445;32;33922;-91
2021/09/10 00:02:52;;;;;;;;;;;;;;;22.41;34.34;100430.47;4447818;32;33185;-91
2021/09/10 00:05:20;;;;;;;;;;;;;;;22.28;34.52;100430.41;4423417;32;34806;-91
2021/09/10 00:07:48;;;;;;;;;;;;;;;21.91;35.35;100433.81;4419237;32;33940;-91
2021/09/10 00:10:16;;;;;;;;;;;;;;;21.06;37.08;100428.72;4415012;32;34252;-91
2021/09/10 00:12:44;;;;;;;;;;;;;;;21.19;37.09;100434.06;4415241;32;34568;-91
2021/09/10 00:15:11;;;;;;;;;;;;;;;21.27;36.79;100429.12;4415555;32;34608;-91
2021/09/10 00:17:39;;;;;;;;;;;;;;;21.25;37.03;100433.66;4427335;32;34009;-90
2021/09/10 00:20:07;;;;;;;;;;;;;;;21.87;35.55;100432.28;4414044;32;34063;-90
2021/09/10 00:22:35;;;;;;;;;;;;;;;22.33;34.43;100428.31;4427084;32;33028;-90
2021/09/10 00:25:04;;;;;;;;;;;;;;;21.55;35.81;100431.78;4414651;32;34977;-90
2021/09/10 00:27:32;;;;;;;;;;;;;;;20.61;37.59;100435.94;4413571;32;33894;-91
2021/09/10 00:30:01;;;;;;;;;;;;;;;21.37;36.43;100429.38;4412969;32;35715;-90
2021/09/10 00:32:29;;;;;;;;;;;;;;;21.19;36.89;100428.75;4414421;32;34711;-90
2021/09/10 00:34:57;;;;;;;;;;;;;;;21.89;35.62;100434.84;4413772;32;35897;-90
2021/09/10 00:37:25;;;;;;;;;;;;;;;21.63;36.19;100424.19;4426989;32;34454;-92
2021/09/10 00:39:53;;;;;;;;;;;;;;;21.55;36.16;100431.78;4413786;32;34885;-90
2021/09/10 00:42:20;;;;;;;;;;;;;;;22.24;34.37;100423.63;4414220;32;34747;-90
2021/09/10 00:44:47;;;;;;;;;;;;;;;21.66;35.60;100427.47;4413257;32;35036;-90
2021/09/10 00:47:16;;;;;;;;;;;;;;;22.07;34.67;100427.44;4414031;32;35159;-91
2021/09/10 00:49:44;;;;;;;;;;;;;;;21.75;35.51;100439.28;4425671;32;34119;-91
2021/09/10 00:52:12;;;;;;;;;;;;;;;21.48;36.27;100436.63;4425489;32;35701;-91
2021/09/10 00:54:40;;;;;;;;;;;;;;;20.25;38.76;100461.91;4413276;32;34646;-90
2021/09/10 00:57:08;;;;;;;;;;;;;;;21.11;36.92;100446.94;4413397;32;34905;-90
2021/09/10 00:59:36;;;;;;;;;;;;;;;20.33;38.39;100442.91;4414107;32;34860;-91
2021/09/10 01:02:05;;;;;;;;;;;;;;;21.58;36.07;100442.19;4414076;32;34494;-91
2021/09/10 01:04:33;;;;;;;;;;;;;;;21.73;35.08;100440.34;4438856;32;33310;-91
2021/09/10 01:07:02;;;;;;;;;;;;;;;21.95;34.70;100445.03;4413700;32;34307;-91
2021/09/10 01:09:30;;;;;;;;;;;;;;;21.78;35.11;100446.19;4426907;32;34017;-90
2021/09/10 01:11:57;;;;;;;;;;;;;;;20.77;36.99;100446.44;4413291;32;35589;-91
2021/09/10 01:14:25;;;;;;;;;;;;;;;21.52;35.47;100430.16;4439661;32;34408;-91
2021/09/10 01:16:53;;;;;;;;;;;;;;;21.46;35.53;100435.84;4413370;32;35289;-91
2021/09/10 01:19:27;;;;;;;;;;;;;;;22.09;34.28;100442.31;4426899;32;33568;-91
2021/09/10 01:21:57;;;;;;;;;;;;;;;21.16;36.09;100440.41;4426425;32;33242;-91
2021/09/10 01:24:26;;;;;;;;;;;;;;;20.90;36.78;100436.78;4425908;32;33271;-91
2021/09/10 01:26:54;;;;;;;;;;;;;;;21.08;36.40;100436.56;4425982;32;33603;-90
2021/09/10 01:29:23;;;;;;;;;;;;;;;20.71;37.37;100436.22;4413582;32;34394;-90
2021/09/10 01:31:50;;;;;;;;;;;;;;;19.78;39.53;100442.56;4413815;32;35501;-91
2021/09/10 01:34:20;;;;;;;;;;;;;;;19.11;40.77;100432.25;4413445;32;35954;-91
2021/09/10 01:36:49;;;;;;;;;;;;;;;19.05;40.95;100442.31;4413965;32;34390;-90
2021/09/10 01:39:17;;;;;;;;;;;;;;;18.93;41.31;100436.78;4426456;32;34334;-90
2021/09/10 01:41:44;;;;;;;;;;;;;;;18.67;42.08;100441.63;4413546;32;35070;-90
2021/09/10 01:44:12;;;;;;;;;;;;;;;18.41;42.81;100435.09;4425454;32;36265;-91
2021/09/10 01:46:40;;;;;;;;;;;;;;;20.23;39.07;100439.97;4413045;32;34401;-91
2021/09/10 01:49:09;;;;;;;;;;;;;;;20.07;38.87;100437.37;4413651;32;32329;-91
2021/09/10 01:51:37;;;;;;;;;;;;;;;20.50;37.44;100440.09;4419324;32;35098;-91
2021/09/10 01:54:04;;;;;;;;;;;;;;;20.61;36.98;100436.78;4421575;32;36002;-90
2021/09/10 01:56:32;;;;;;;;;;;;;;;21.25;35.38;100435.47;4422510;32;34503;-91
2021/09/10 01:59:00;;;;;;;;;;;;;;;20.85;36.07;100441.53;4434316;32;33119;-91
2021/09/10 02:01:30;;;;;;;;;;;;;;;20.48;37.13;100438.47;4427894;32;35084;-90
2021/09/10 02:03:59;;;;;;;;;;;;;;;21.02;36.21;100433.34;4426834;32;33207;-91
2021/09/10 02:06:28;;;;;;;;;;;;;;;20.74;36.87;100434.25;4413221;32;35608;-91
2021/09/10 02:08:55;;;;;;;;;;;;;;;20.58;37.34;100436.97;4412515;32;34382;-91
2021/09/10 02:11:24;;;;;;;;;;;;;;;20.60;37.12;100431.56;4413922;32;34676;-91
2021/09/10 02:13:52;;;;;;;;;;;;;;;20.37;37.92;100431.19;4425902;32;34932;-91
2021/09/10 02:16:20;;;;;;;;;;;;;;;20.52;37.42;100434.69;4412875;32;33626;-90
2021/09/10 02:18:48;;;;;;;;;;;;;;;20.50;37.39;100432.16;4412598;32;33653;-90
2021/09/10 02:21:17;;;;;;;;;;;;;;;20.79;36.42;100429.50;4413343;32;33714;-90
2021/09/10 02:23:44;;;;;;;;;;;;;;;20.39;37.30;100437.22;4412463;32;34767;-92
2021/09/10 02:26:13;;;;;;;;;;;;;;;20.19;38.15;100433.16;4425454;32;34394;-90
2021/09/10 02:28:41;;;;;;;;;;;;;;;20.07;38.56;100436.53;4412598;32;34332;-90
2021/09/10 02:31:09;;;;;;;;;;;;;;;20.22;38.35;100432.12;4425234;32;34769;-90
2021/09/10 02:33:37;;;;;;;;;;;;;;;20.36;38.16;100440.91;4413104;32;33697;-90
2021/09/10 02:36:05;;;;;;;;;;;;;;;20.28;38.38;100437.88;4426256;32;34543;-90
2021/09/10 02:38:32;;;;;;;;;;;;;;;20.95;35.95;100433.84;4413556;32;34638;-91
2021/09/10 02:41:01;;;;;;;;;;;;;;;21.07;35.45;100432.19;4413061;32;34620;-90
2021/09/10 02:43:29;;;;;;;;;;;;;;;20.52;36.74;100435.53;4412657;32;36103;-90
2021/09/10 02:45:58;;;;;;;;;;;;;;;20.81;36.08;100437.37;4412792;32;34815;-89
2021/09/10 02:48:26;;;;;;;;;;;;;;;20.32;37.17;100435.91;4425056;32;34447;-90
2021/09/10 02:50:54;;;;;;;;;;;;;;;20.28;37.22;100429.94;4412567;32;35141;-90
2021/09/10 02:53:23;;;;;;;;;;;;;;;20.66;36.52;100431.19;4415118;32;34937;-90
2021/09/10 02:55:51;;;;;;;;;;;;;;;20.76;36.29;100432.34;4414407;32;35774;-91
2021/09/10 02:58:19;;;;;;;;;;;;;;;20.98;35.87;100429.19;4414160;32;34164;-90
2021/09/10 03:00:47;;;;;;;;;;;;;;;21.00;35.87;100432.59;4414758;32;33823;-90
2021/09/10 03:03:17;;;;;;;;;;;;;;;21.16;35.66;100421.00;4402156;32;34983;-93
2021/09/10 03:05:46;;;;;;;;;;;;;;;21.28;35.25;100416.72;4414339;32;34908;-90
2021/09/10 03:08:13;;;;;;;;;;;;;;;21.13;35.47;100416.75;4414630;32;33990;-90
2021/09/10 03:10:42;;;;;;;;;;;;;;;21.21;35.29;100423.34;4414280;32;34687;-91
2021/09/10 03:13:10;;;;;;;;;;;;;;;21.16;35.37;100423.66;4428657;32;35031;-91
2021/09/10 03:15:37;;;;;;;;;;;;;;;20.62;36.57;100419.94;4416076;32;37298;-91
2021/09/10 03:18:06;;;;;;;;;;;;;;;20.00;37.52;100423.66;4414271;32;33997;-90
2021/09/10 03:20:33;;;;;;;;;;;;;;;21.02;35.49;100421.91;4426738;32;34749;-91
2021/09/10 03:23:00;;;;;;;;;;;;;;;20.83;35.71;100419.56;4414615;32;33727;-90
2021/09/10 03:25:29;;;;;;;;;;;;;;;21.24;34.66;100410.75;4428170;32;34404;-91
2021/09/10 03:27:57;;;;;;;;;;;;;;;21.12;34.83;100416.87;4426840;32;34006;-91
2021/09/10 03:30:25;;;;;;;;;;;;;;;20.83;35.53;100419.56;4414327;32;34584;-91
2021/09/10 03:32:53;;;;;;;;;;;;;;;20.59;36.27;100422.75;4402009;32;34912;-90
2021/09/10 03:35:21;;;;;;;;;;;;;;;19.97;37.49;100415.94;4414038;32;35023;-90
2021/09/10 03:37:48;;;;;;;;;;;;;;;20.46;36.53;100421.81;4414145;32;33830;-89
2021/09/10 03:40:16;;;;;;;;;;;;;;;20.33;36.87;100422.59;4414366;32;33449;-91
2021/09/10 03:42:44;;;;;;;;;;;;;;;20.66;36.11;100424.09;4428063;32;34072;-90
2021/09/10 03:45:12;;;;;;;;;;;;;;;20.76;35.81;100420.91;4439239;32;35391;-90
2021/09/10 03:47:40;;;;;;;;;;;;;;;20.24;36.67;100423.16;4414239;32;34187;-90
2021/09/10 03:50:09;;;;;;;;;;;;;;;20.19;36.73;100425.22;4414249;32;35451;-91
2021/09/10 03:52:36;;;;;;;;;;;;;;;20.43;36.34;100422.88;4426473;32;34850;-91
2021/09/10 03:55:04;;;;;;;;;;;;;;;20.22;36.60;100421.53;4413924;32;35312;-90
2021/09/10 03:57:32;;;;;;;;;;;;;;;20.73;35.68;100421.09;4414227;32;33304;-90
2021/09/10 04:00:00;;;;;;;;;;;;;;;20.43;35.94;100419.38;4427359;32;35065;-89
2021/09/10 04:02:28;;;;;;;;;;;;;;;19.72;37.26;100420.91;4426714;32;33894;-90
2021/09/10 04:04:58;;;;;;;;;;;;;;;19.84;37.02;100422.88;4413869;32;34368;-90
2021/09/10 04:07:28;;;;;;;;;;;;;;;19.97;36.79;100420.34;4414685;32;32953;-90
2021/09/10 04:09:56;;;;;;;;;;;;;;;19.89;36.88;100422.59;4427135;32;35679;-90
2021/09/10 04:12:26;;;;;;;;;;;;;;;20.42;35.99;100420.31;4414401;32;35854;-90
2021/09/10 04:14:55;;;;;;;;;;;;;;;20.56;35.68;100422.12;4414035;32;34976;-90
2021/09/10 04:17:23;;;;;;;;;;;;;;;20.00;36.53;100420.19;4414489;32;33557;-90
2021/09/10 04:19:51;;;;;;;;;;;;;;;20.49;35.85;100421.66;4414052;32;34813;-90
2021/09/10 04:22:19;;;;;;;;;;;;;;;20.64;35.40;100415.41;4427721;32;34032;-90
2021/09/10 04:24:47;;;;;;;;;;;;;;;19.87;36.66;100424.50;4414565;32;34171;-91
2021/09/10 04:27:15;;;;;;;;;;;;;;;20.15;36.25;100415.75;4427339;32;33680;-91
2021/09/10 04:29:43;;;;;;;;;;;;;;;19.34;37.83;100419.53;4414192;32;35342;-90
2021/09/10 04:32:11;;;;;;;;;;;;;;;19.23;38.18;100425.44;4413886;32;34871;-90
2021/09/10 04:34:39;;;;;;;;;;;;;;;19.88;36.94;100426.19;4426421;32;35410;-91
2021/09/10 04:37:06;;;;;;;;;;;;;;;20.14;36.37;100428.16;4427303;32;34119;-93
2021/09/10 04:39:34;;;;;;;;;;;;;;;19.82;36.85;100432.69;4413928;32;34746;-91
2021/09/10 04:42:02;;;;;;;;;;;;;;;20.14;36.32;100424.63;4426157;32;36375;-92
2021/09/10 04:44:30;;;;;;;;;;;;;;;20.15;36.56;100432.47;4413427;32;34421;-92
2021/09/10 04:46:57;;;;;;;;;;;;;;;20.50;35.96;100431.28;4426437;32;33866;-91
2021/09/10 04:49:26;;;;;;;;;;;;;;;20.58;35.77;100428.16;4426501;32;33889;-92
2021/09/10 04:51:54;;;;;;;;;;;;;;;19.81;37.37;100439.78;4412893;32;35413;-90
2021/09/10 04:54:24;;;;;;;;;;;;;;;20.22;36.89;100434.75;4417158;32;34971;-89
2021/09/10 04:56:52;;;;;;;;;;;;;;;19.93;37.69;100443.50;4407746;32;34418;-89
2021/09/10 04:59:20;;;;;;;;;;;;;;;20.60;36.11;100436.87;4419773;32;34503;-89
2021/09/10 05:01:48;;;;;;;;;;;;;;;20.88;35.46;100438.66;4422414;32;34644;-89
2021/09/10 05:04:18;;;;;;;;;;;;;;;20.89;35.38;100443.03;4398317;32;34750;-89
2021/09/10 05:06:45;;;;;;;;;;;;;;;20.59;35.94;100453.69;4410831;32;33714;-89
2021/09/10 05:09:12;;;;;;;;;;;;;;;20.30;36.67;100453.66;4410068;32;34660;-89
2021/09/10 05:11:40;;;;;;;;;;;;;;;20.32;36.78;100449.16;4422287;32;36084;-89
2021/09/10 05:14:09;;;;;;;;;;;;;;;20.22;37.04;100445.34;4409738;32;35292;-89
2021/09/10 05:16:37;;;;;;;;;;;;;;;20.71;36.08;100447.66;4397979;32;34824;-89
2021/09/10 05:19:05;;;;;;;;;;;;;;;20.71;36.32;100450.31;4423581;32;34249;-89
2021/09/10 05:21:32;;;;;;;;;;;;;;;20.58;36.65;100444.91;4397449;32;34804;-90
2021/09/10 05:23:59;;;;;;;;;;;;;;;20.28;37.44;100452.91;4423433;32;34353;-90
2021/09/10 05:26:27;;;;;;;;;;;;;;;20.44;37.31;100442.25;4413511;32;34808;-90
2021/09/10 05:28:55;;;;;;;;;;;;;;;20.96;36.48;100446.97;4414306;32;34508;-90
2021/09/10 05:31:23;;;;;;;;;;;;;;;21.14;36.16;100444.09;4398689;32;35630;-88
2021/09/10 05:33:51;;;;;;;;;;;;;;;21.08;36.38;100449.81;4407726;32;35744;-88
2021/09/10 05:36:18;;;;;;;;;;;;;;;21.25;36.33;100454.03;4408118;32;34969;-87
2021/09/10 05:38:45;;;;;;;;;;;;;;;21.33;36.09;100451.72;4408737;32;33889;-88
2021/09/10 05:41:14;;;;;;;;;;;;;;;21.46;35.95;100444.69;4408823;32;35005;-89
2021/09/10 05:43:41;;;;;;;;;;;;;;;21.02;37.15;100451.06;4408469;32;35154;-88
2021/09/10 05:46:09;;;;;;;;;;;;;;;21.54;36.45;100456.59;4396253;32;34143;-89
2021/09/10 05:48:37;;;;;;;;;;;;;;;21.81;36.05;100452.12;4381507;32;861951;-89
2021/09/10 05:51:06;;;;;;;;;;;;;;;21.82;36.33;100456.47;4387876;32;35088;-89
2021/09/10 05:53:34;;;;;;;;;;;;;;;22.10;35.82;100453.78;4419726;32;34191;-88
2021/09/10 05:56:03;;;;;;;;;;;;;;;22.34;35.30;100457.37;4396294;32;32552;-91
2021/09/10 05:58:31;;;;;;;;;;;;;;;22.34;35.36;100454.72;4410044;32;33824;-90
2021/09/10 06:01:03;;;;;;;;;;;;;;;22.91;34.49;100455.25;4397801;32;34999;-85
2021/09/10 06:03:32;;;;;;;;;;;;;;;23.03;34.36;100466.81;4396072;32;35658;-87
2021/09/10 06:06:01;;;;;;;;;;;;;;;23.30;34.04;100463.97;4397079;32;32806;-88
2021/09/10 06:08:29;;;;;;;;;;;;;;;23.78;33.21;100464.94;4409799;32;35522;-88
2021/09/10 06:10:57;;;;;;;;;;;;;;;23.62;33.60;100463.41;4421747;32;34864;-88
2021/09/10 06:13:25;;;;;;;;;;;;;;;24.25;32.53;100465.84;4402887;32;34763;-88
2021/09/10 06:15:52;;;;;;;;;;;;;;;23.84;33.32;100464.50;4400423;32;34862;-88
2021/09/10 06:18:21;;;;;;;;;;;;;;;24.31;32.04;100465.34;4420091;32;34292;-89
2021/09/10 06:20:49;;;;;;;;;;;;;;;24.29;31.92;100467.28;4408760;32;35871;-88
2021/09/10 06:23:16;;;;;;;;;;;;;;;24.10;32.14;100470.50;4409436;32;34031;-89
2021/09/10 06:25:44;;;;;;;;;;;;;;;24.38;31.96;100467.53;4409642;32;34593;-88
2021/09/10 06:28:11;;;;;;;;;;;;;;;24.72;31.51;100472.91;4408453;32;34550;-87
2021/09/10 06:30:39;;;;;;;;;;;;;;;24.42;32.13;100472.50;4397549;32;33752;-85
2021/09/10 06:33:08;;;;;;;;;;;;;;;24.31;32.43;100467.16;4402571;32;34481;-88
2021/09/10 06:35:36;;;;;;;;;;;;;;;24.61;31.94;100468.41;4395788;32;33718;-89
2021/09/10 06:38:04;;;;;;;;;;;;;;;25.14;31.13;100462.44;4415674;32;33528;-87
2021/09/10 06:40:31;;;;;;;;;;;;;;;25.17;31.08;100465.72;4411973;32;35195;-86
2021/09/10 06:43:00;;;;;;;;;;;;;;;24.77;31.75;100471.59;4418316;32;35015;-87
2021/09/10 06:45:28;;;;;;;;;;;;;;;25.30;30.86;100468.25;4395591;32;31912;-85
2021/09/10 06:47:56;;;;;;;;;;;;;;;25.39;30.89;100466.66;4415851;32;33190;-87
2021/09/10 06:50:23;;;;;;;;;;;;;;;25.61;30.62;100468.41;4409727;32;34526;-87
2021/09/10 06:52:51;;;;;;;;;;;;;;;25.53;30.96;100470.00;4411152;32;33961;-84
2021/09/10 06:55:19;;;;;;;;;;;;;;;25.38;31.16;100472.13;4395068;32;33818;-87
2021/09/10 06:57:47;;;;;;;;;;;;;;;25.66;30.68;100471.56;4404536;32;35949;-85
2021/09/10 07:00:16;;;;;;;;;;;;;;;24.90;32.33;100474.09;4418437;32;33238;-87
2021/09/10 07:02:44;;;;;;;;;;;;;;;25.43;31.37;100472.59;4395372;32;35530;-88
2021/09/10 07:05:12;;;;;;;;;;;;;;;25.99;30.49;100474.19;4413555;32;32455;-87
2021/09/10 07:07:40;;;;;;;;;;;;;;;26.27;30.17;100469.19;4394707;32;33132;-87
2021/09/10 07:10:09;;;;;;;;;;;;;;;26.14;30.22;100474.75;4402112;32;33763;-87
2021/09/10 07:12:36;;;;;;;;;;;;;;;26.13;30.29;100478.41;4414362;32;35058;-88
2021/09/10 07:15:05;;;;;;;;;;;;;;;26.48;29.77;100469.16;4397257;32;32356;-88
2021/09/10 07:17:32;;;;;;;;;;;;;;;26.92;28.84;100480.50;4423263;32;34102;-89
2021/09/10 07:20:00;;;;;;;;;;;;;;;26.28;29.27;100471.72;4408244;32;34165;-90
2021/09/10 07:22:28;;;;;;;;;;;;;;;26.50;28.75;100473.41;4403725;32;33228;-88
2021/09/10 07:24:56;;;;;;;;;;;;;;;27.32;27.50;100482.28;4376288;32;33437;-86
2021/09/10 07:27:24;;;;;;;;;;;;;;;27.28;27.17;100483.56;4394834;32;35186;-88
2021/09/10 07:29:51;;;;;;;;;;;;;;;27.70;26.28;100473.63;4409883;32;33462;-89
2021/09/10 07:32:19;;;;;;;;;;;;;;;27.52;26.00;100481.50;4413875;32;34088;-86
2021/09/10 07:34:46;;;;;;;;;;;;;;;27.80;25.60;100485.16;4414134;32;32553;-86
2021/09/10 07:37:14;;;;;;;;;;;;;;;28.16;24.98;100480.94;4399055;32;33119;-87
2021/09/10 07:39:42;;;;;;;;;;;;;;;28.20;25.12;100481.50;4419311;32;34361;-87
2021/09/10 07:42:10;;;;;;;;;;;;;;;28.29;25.04;100486.00;4406512;32;33588;-86
2021/09/10 07:44:38;;;;;;;;;;;;;;;28.69;24.60;100481.34;4419050;32;34210;-86
2021/09/10 07:47:05;;;;;;;;;;;;;;;28.24;25.33;100482.03;4425134;32;33993;-87
2021/09/10 07:49:33;;;;;;;;;;;;;;;28.94;24.33;100482.50;4419890;32;33994;-89
2021/09/10 07:52:00;;;;;;;;;;;;;;;28.67;24.56;100478.00;4415165;32;33301;-88
2021/09/10 07:54:29;;;;;;;;;;;;;;;28.12;25.18;100489.38;4417677;32;33738;-87
2021/09/10 07:57:03;;;;;;;;;;;;;;;28.45;24.29;100489.88;4412004;32;33217;-87
2021/09/10 07:59:31;;;;;;;;;;;;;;;29.22;23.34;100490.53;4424339;32;34352;-87
2021/09/10 08:01:59;;;;;;;;;;;;;;;29.24;23.35;100493.94;4411161;32;35332;-86
2021/09/10 08:04:28;;;;;;;;;;;;;;;29.11;23.33;100493.44;4423859;32;33157;-87
2021/09/10 08:06:56;;;;;;;;;;;;;;;29.05;23.47;100484.16;4410640;32;35904;-87
2021/09/10 08:09:24;;;;;;;;;;;;;;;29.48;23.09;100484.50;4410071;32;34775;-87
2021/09/10 08:11:52;;;;;;;;;;;;;;;29.47;23.11;100489.00;4411273;32;33177;-87
2021/09/10 08:14:19;;;;;;;;;;;;;;;29.73;22.75;100482.00;4410595;32;33212;-87
2021/09/10 08:16:46;;;;;;;;;;;;;;;29.51;23.03;100484.16;4423286;32;34273;-88
2021/09/10 08:19:19;;;;;;;;;;;;;;;29.45;23.00;100480.25;4423952;32;34063;-87
2021/09/10 08:21:46;;;;;;;;;;;;;;;30.25;22.14;100468.69;4410733;32;33045;-87
2021/09/10 08:24:14;;;;;;;;;;;;;;;30.40;22.07;100470.78;4423765;32;33467;-87
2021/09/10 08:26:41;;;;;;;;;;;;;;;30.67;21.86;100472.47;4411083;32;34045;-87
2021/09/10 08:29:09;;;;;;;;;;;;;;;30.53;21.90;100475.75;4410594;32;33391;-87
2021/09/10 08:31:36;;;;;;;;;;;;;;;30.96;21.41;100472.06;4398133;32;33350;-87
2021/09/10 08:34:05;;;;;;;;;;;;;;;30.13;22.37;100470.78;4423864;32;33524;-87
2021/09/10 08:36:33;;;;;;;;;;;;;;;30.01;22.69;100477.44;4411109;32;34645;-87
2021/09/10 08:39:02;;;;;;;;;;;;;;;30.23;22.63;100473.34;4410420;32;33201;-87
2021/09/10 08:41:32;;;;;;;;;;;;;;;29.88;22.88;100475.13;4410328;32;36125;-87
2021/09/10 08:44:02;;;;;;;;;;;;;;;30.55;22.13;100474.59;4410318;32;32570;-88
2021/09/10 08:46:30;;;;;;;;;;;;;;;30.82;21.64;100478.09;4410929;32;33017;-88
2021/09/10 08:48:59;;;;;;;;;;;;;;;30.62;21.95;100475.66;4397655;32;34071;-87
2021/09/10 08:51:26;;;;;;;;;;;;;;;30.81;21.88;100468.34;4410682;32;34420;-88
2021/09/10 08:53:54;;;;;;;;;;;;;;;30.86;21.89;100474.06;4397295;32;33163;-87
2021/09/10 08:56:22;;;;;;;;;;;;;;;31.55;21.05;100473.06;4423426;32;34280;-88
2021/09/10 08:58:50;;;;;;;;;;;;;;;31.03;21.64;100474.13;4410138;32;33562;-88
2021/09/10 09:01:18;;;;;;;;;;;;;;;31.84;20.59;100469.91;4410284;32;35183;-87
2021/09/10 09:03:46;;;;;;;;;;;;;;;31.64;20.98;100475.66;4405808;32;33716;-88
2021/09/10 09:06:14;;;;;;;;;;;;;;;32.08;20.44;100461.00;4405888;32;33150;-89
2021/09/10 09:08:45;;;;;;;;;;;;;;;32.47;20.01;100465.62;4410525;32;33418;-89
2021/09/10 09:11:13;;;;;;;;;;;;;;;32.33;20.26;100458.25;4411077;32;34392;-89
2021/09/10 09:13:45;;;;;;;;;;;;;;;32.40;20.17;100459.25;4410481;32;34164;-88
2021/09/10 09:16:17;;;;;;;;;;;;;;;31.75;20.92;100454.75;4398271;32;32950;-87
2021/09/10 09:18:50;;;;;;;;;;;;;;;31.08;21.70;100452.97;4411956;32;33407;-87
2021/09/10 09:21:28;;;;;;;;;;;;;;;31.49;21.32;100453.03;4413043;32;33156;-87
2021/09/10 09:23:57;;;;;;;;;;;;;;;31.95;20.54;100444.47;4410465;32;33091;-87
2021/09/10 09:26:28;;;;;;;;;;;;;;;31.67;21.06;100444.84;4410356;32;34203;-87
2021/09/10 09:29:06;;;;;;;;;;;;;;;32.05;20.47;100442.44;4411019;32;34389;-87
2021/09/10 09:31:34;;;;;;;;;;;;;;;32.47;19.99;100445.94;4410416;32;33140;-87
2021/09/10 09:34:03;;;;;;;;;;;;;;;33.09;19.25;100441.59;4409951;32;32550;-86
2021/09/10 09:36:30;;;;;;;;;;;;;;;32.57;19.78;100443.84;4409673;32;34590;-88
2021/09/10 09:38:58;;;;;;;;;;;;;;;32.75;19.63;100437.41;4409607;32;34894;-86
2021/09/10 09:41:26;;;;;;;;;;;;;;;32.63;19.67;100434.22;4397022;32;35410;-86
2021/09/10 09:44:08;;;;;;;;;;;;;;;32.17;19.76;100437.56;4396545;32;34016;-86
2021/09/10 09:46:36;;;;;;;;;;;;;;;31.91;20.38;100433.22;4407097;32;34349;-86
2021/09/10 09:49:08;;;;;;;;;;;;;;;32.56;19.65;100438.62;4411578;32;35739;-86
2021/09/10 09:51:37;;;;;;;;;;;;;;;33.36;18.73;100421.38;4412961;32;35580;-86
2021/09/10 09:54:04;;;;;;;;;;;;;;;32.78;18.76;100428.97;4412976;32;32304;-86
2021/09/10 09:56:31;;;;;;;;;;;;;;;32.80;18.91;100421.50;4412597;32;34252;-86
2021/09/10 09:59:00;;;;;;;;;;;;;;;32.83;19.09;100421.19;4399602;32;33700;-86
2021/09/10 10:01:27;;;;;;;;;;;;;;;33.79;18.16;100413.59;4425514;32;34020;-86
2021/09/10 10:03:57;;;;;;;;;;;;;;;33.88;17.81;100414.38;4413016;32;33240;-87
2021/09/10 10:06:25;;;;;;;;;;;;;;;33.95;17.85;100414.47;4412392;32;34570;-87
2021/09/10 10:08:53;;;;;;;;;;;;;;;33.98;17.36;100414.09;4412481;32;35464;-86
2021/09/10 10:11:40;;;;;;;;;;;;;;;33.85;17.38;100409.31;4425439;32;33761;-86
2021/09/10 10:14:07;;;;;;;;;;;;;;;33.20;17.03;100408.81;4412713;32;33867;-86
2021/09/10 10:16:36;;;;;;;;;;;;;;;32.59;18.00;100414.84;4399907;32;33059;-86
2021/09/10 10:19:04;;;;;;;;;;;;;;;33.65;17.26;100402.75;4400295;32;34161;-86
2021/09/10 10:21:51;;;;;;;;;;;;;;;33.62;17.36;100402.06;4412443;32;33609;-85
2021/09/10 10:24:38;;;;;;;;;;;;;;;33.51;17.13;100407.09;4411373;32;32600;-87
2021/09/10 10:27:26;;;;;;;;;;;;;;;34.14;16.67;100399.56;4410659;32;35909;-86
2021/09/10 10:29:56;;;;;;;;;;;;;;;34.36;16.71;100395.12;4410999;32;35434;-86
2021/09/10 10:32:42;;;;;;;;;;;;;;;34.37;15.41;100399.50;4409415;32;34900;-88
2021/09/10 10:35:22;;;;;;;;;;;;;;;35.28;14.70;100393.66;4409170;32;34652;-87
2021/09/10 10:37:53;;;;;;;;;;;;;;;34.79;15.60;100391.69;4421870;32;34479;-87
2021/09/10 10:40:25;;;;;;;;;;;;;;;34.84;15.46;100391.16;4408898;32;35265;-85
2021/09/10 10:43:09;;;;;;;;;;;;;;;34.85;15.91;100392.81;4406496;32;34574;-86
2021/09/10 10:45:37;;;;;;;;;;;;;;;34.84;15.92;100389.28;4408373;32;33172;-86
2021/09/10 10:48:10;;;;;;;;;;;;;;;34.78;15.70;100392.69;4421499;32;33468;-87
2021/09/10 10:50:38;;;;;;;;;;;;;;;33.24;17.11;100393.06;4396463;32;34866;-87
2021/09/10 10:53:05;;;;;;;;;;;;;;;33.57;16.96;100399.09;4412415;32;34137;-87
2021/09/10 10:55:35;;;;;;;;;;;;;;;33.72;16.97;100390.16;4402582;32;33658;-86
2021/09/10 10:58:24;;;;;;;;;;;;;;;33.63;17.25;100384.84;4413866;32;33292;-87
2021/09/10 11:01:02;;;;;;;;;;;;;;;33.08;17.54;100385.94;4423712;32;35143;-87
2021/09/10 11:03:32;;;;;;;;;;;;;;;33.96;16.96;100384.56;4409575;32;34793;-87
2021/09/10 11:06:20;;;;;;;;;;;;;;;34.35;16.62;100373.69;4409657;32;34529;-88
2021/09/10 11:08:48;;;;;;;;;;;;;;;34.60;16.32;100372.31;4408970;32;35009;-88
2021/09/10 11:11:15;;;;;;;;;;;;;;;34.57;16.31;100374.56;4396307;32;34173;-87
2021/09/10 11:13:42;;;;;;;;;;;;;;;33.23;17.65;100376.03;4411737;32;33191;-87
2021/09/10 11:16:10;;;;;;;;;;;;;;;33.35;17.57;100375.66;4410993;32;34756;-88
2021/09/10 11:18:38;;;;;;;;;;;;;;;33.41;17.16;100367.69;4398744;32;34348;-86
2021/09/10 11:21:06;;;;;;;;;;;;;;;33.70;16.73;100362.50;4411927;32;35080;-86
2021/09/10 11:23:38;;;;;;;;;;;;;;;32.81;17.70;100369.25;4398717;32;33047;-86
2021/09/10 11:26:09;;;;;;;;;;;;;;;33.39;17.10;100363.47;4411749;32;33145;-86
2021/09/10 11:28:37;;;;;;;;;;;;;;;33.57;17.14;100358.59;4426390;32;34055;-86
2021/09/10 11:31:04;;;;;;;;;;;;;;;33.10;17.39;100362.31;4425771;32;34118;-86
2021/09/10 11:33:43;;;;;;;;;;;;;;;32.72;18.01;100363.06;4407418;32;33037;-86
2021/09/10 11:36:21;;;;;;;;;;;;;;;33.56;17.06;100350.62;4394958;32;34383;-86
2021/09/10 11:38:49;;;;;;;;;;;;;;;34.09;16.72;100353.31;4398760;32;32860;-86
2021/09/10 11:41:33;;;;;;;;;;;;;;;33.17;17.79;100351.63;4416052;32;35356;-86
2021/09/10 11:44:05;;;;;;;;;;;;;;;33.56;17.22;100335.28;4398790;32;33171;-86
2021/09/10 11:46:33;;;;;;;;;;;;;;;34.75;16.19;100328.97;4411264;32;32941;-86
2021/09/10 11:49:01;;;;;;;;;;;;;;;35.22;15.80;100334.88;4412099;32;34637;-86
2021/09/10 11:51:40;;;;;;;;;;;;;;;33.91;17.22;100343.72;4398415;32;35949;-86
2021/09/10 11:54:10;;;;;;;;;;;;;;;34.86;16.27;100337.66;4400983;32;33565;-86
2021/09/10 11:56:38;;;;;;;;;;;;;;;33.21;17.51;100348.38;4398632;32;33859;-86
2021/09/10 11:59:19;;;;;;;;;;;;;;;34.56;16.49;100341.25;4385978;32;33113;-87
2021/09/10 12:01:48;;;;;;;;;;;;;;;33.94;16.96;100332.53;4408785;32;34453;-86
2021/09/10 12:04:29;;;;;;;;;;;;;;;33.66;17.24;100339.59;4382934;32;33397;-86
2021/09/10 12:06:59;;;;;;;;;;;;;;;32.82;18.43;100333.16;4408327;32;33883;-86
2021/09/10 12:09:30;;;;;;;;;;;;;;;33.78;17.41;100327.28;4395188;32;35684;-87
2021/09/10 12:12:02;;;;;;;;;;;;;;;33.76;17.43;100327.47;4395689;32;35224;-85
2021/09/10 12:14:35;;;;;;;;;;;;;;;33.50;17.53;100324.38;4407154;32;33193;-86
2021/09/10 12:17:23;;;;;;;;;;;;;;;34.22;16.91;100318.34;4395520;32;33159;-86
2021/09/10 12:19:54;;;;;;;;;;;;;;;34.51;16.68;100315.81;4414660;32;33595;-85
2021/09/10 12:22:43;;;;;;;;;;;;;;;35.16;15.96;100307.75;4422921;32;34363;-85
2021/09/10 12:25:21;;;;;;;;;;;;;;;33.90;16.69;100298.81;4409582;32;33449;-85
2021/09/10 12:27:53;;;;;;;;;;;;;;;33.89;16.52;100309.81;4410062;32;32980;-86
2021/09/10 12:30:25;;;;;;;;;;;;;;;34.29;16.20;100300.34;4410045;32;33158;-86
2021/09/10 12:32:54;;;;;;;;;;;;;;;34.47;15.95;100304.53;4407562;32;33821;-86
2021/09/10 12:35:22;;;;;;;;;;;;;;;34.68;15.53;100305.59;4409389;32;33415;-85
2021/09/10 12:37:55;;;;;;;;;;;;;;;34.40;15.96;100309.88;4398386;32;32906;-86
2021/09/10 12:40:27;;;;;;;;;;;;;;;34.85;15.51;100307.06;4418552;32;33782;-86
2021/09/10 12:42:55;;;;;;;;;;;;;;;33.85;16.59;100300.41;4397656;32;33197;-87
2021/09/10 12:45:24;;;;;;;;;;;;;;;35.15;15.49;100296.06;4399141;32;33519;-86